Terminal Aerodrome Forecast
Issued by NWS

Home | Current Version | Previous Version | Text Only | Print | Product List | Glossary Off
Versions: 1 2 3 4 5 6 7 8 9 10 11 12 13 14 15 16 17 18 19 20 21

475
FTUS43 KGRB 101336 AAC
TAFCWA
TAF AMD
KCWA 101336Z 1014/1112 28005KT P6SM OVC012
      TEMPO 1014/1016 5SM -SN BR BKN006
     FM101600 32008G15KT P6SM BKN015
     FM101800 32008G15KT P6SM SCT020 BKN035
     FM102200 32006KT P6SM SCT035 BKN250
     FM110600 VRB03KT P6SM SCT025 OVC070
     FM110900 14005KT 2SM -SN OVC015
     FM111100 14006KT 1 1/2SM -SN OVC008=

USA.gov is the U.S. government's official web portal to all federal, state and local government web resources and services.